sensor_id;sensor_type;location;lat;lon;timestamp;P1;durP1;ratioP1;P2;durP2;ratioP2
15526;SDS011;7865;50.918;4.510;2022-11-15T00:00:58;21.43;;;14.47;;
15526;SDS011;7865;50.918;4.510;2022-11-15T00:06:19;24.30;;;15.10;;
15526;SDS011;7865;50.918;4.510;2022-11-15T00:11:39;23.97;;;15.53;;
15526;SDS011;7865;50.918;4.510;2022-11-15T00:17:00;21.57;;;15.73;;
15526;SDS011;7865;50.918;4.510;2022-11-15T00:22:20;21.90;;;15.40;;
15526;SDS011;7865;50.918;4.510;2022-11-15T00:27:41;20.83;;;14.17;;
15526;SDS011;7865;50.918;4.510;2022-11-15T00:33:05;23.30;;;14.47;;
15526;SDS011;7865;50.918;4.510;2022-11-15T00:38:30;23.23;;;15.40;;
15526;SDS011;7865;50.918;4.510;2022-11-15T00:43:51;24.83;;;16.10;;
15526;SDS011;7865;50.918;4.510;2022-11-15T00:49:12;22.77;;;16.50;;
15526;SDS011;7865;50.918;4.510;2022-11-15T00:54:32;25.67;;;16.83;;
15526;SDS011;7865;50.918;4.510;2022-11-15T00:59:53;22.97;;;16.83;;
15526;SDS011;7865;50.918;4.510;2022-11-15T01:05:13;28.33;;;17.00;;
15526;SDS011;7865;50.918;4.510;2022-11-15T01:10:34;26.23;;;16.87;;
15526;SDS011;7865;50.918;4.510;2022-11-15T01:15:54;25.73;;;17.10;;
15526;SDS011;7865;50.918;4.510;2022-11-15T01:21:17;23.90;;;15.97;;
15526;SDS011;7865;50.918;4.510;2022-11-15T01:26:39;27.63;;;17.03;;
15526;SDS011;7865;50.918;4.510;2022-11-15T01:31:59;27.03;;;18.27;;
15526;SDS011;7865;50.918;4.510;2022-11-15T01:37:20;28.87;;;18.60;;
15526;SDS011;7865;50.918;4.510;2022-11-15T01:42:40;27.47;;;18.87;;
15526;SDS011;7865;50.918;4.510;2022-11-15T01:48:01;28.00;;;18.57;;
15526;SDS011;7865;50.918;4.510;2022-11-15T01:53:22;26.30;;;17.27;;
15526;SDS011;7865;50.918;4.510;2022-11-15T01:58:45;25.67;;;16.70;;
15526;SDS011;7865;50.918;4.510;2022-11-15T02:04:13;24.50;;;16.23;;
15526;SDS011;7865;50.918;4.510;2022-11-15T02:09:37;26.13;;;15.80;;
15526;SDS011;7865;50.918;4.510;2022-11-15T02:14:58;19.10;;;13.87;;
15526;SDS011;7865;50.918;4.510;2022-11-15T02:26:35;19.97;;;11.47;;
15526;SDS011;7865;50.918;4.510;2022-11-15T02:32:25;19.87;;;11.50;;
15526;SDS011;7865;50.918;4.510;2022-11-15T02:37:59;18.13;;;11.73;;
15526;SDS011;7865;50.918;4.510;2022-11-15T02:43:51;21.00;;;11.43;;
15526;SDS011;7865;50.918;4.510;2022-11-15T02:49:18;16.80;;;11.80;;
15526;SDS011;7865;50.918;4.510;2022-11-15T02:54:39;17.33;;;11.67;;
15526;SDS011;7865;50.918;4.510;2022-11-15T03:00:44;16.90;;;11.47;;
15526;SDS011;7865;50.918;4.510;2022-11-15T03:05:50;20.97;;;12.17;;
15526;SDS011;7865;50.918;4.510;2022-11-15T03:11:15;19.27;;;11.80;;
15526;SDS011;7865;50.918;4.510;2022-11-15T03:22:18;19.87;;;10.93;;
15526;SDS011;7865;50.918;4.510;2022-11-15T03:27:41;14.67;;;10.10;;
15526;SDS011;7865;50.918;4.510;2022-11-15T03:33:06;12.67;;;8.87;;
15526;SDS011;7865;50.918;4.510;2022-11-15T03:38:29;16.30;;;8.90;;
15526;SDS011;7865;50.918;4.510;2022-11-15T03:44:13;10.63;;;7.53;;
15526;SDS011;7865;50.918;4.510;2022-11-15T03:49:42;13.43;;;7.83;;
15526;SDS011;7865;50.918;4.510;2022-11-15T03:55:07;12.13;;;7.17;;
15526;SDS011;7865;50.918;4.510;2022-11-15T04:00:31;9.43;;;6.33;;
15526;SDS011;7865;50.918;4.510;2022-11-15T04:05:51;10.90;;;6.37;;
15526;SDS011;7865;50.918;4.510;2022-11-15T04:11:12;10.60;;;6.50;;
15526;SDS011;7865;50.918;4.510;2022-11-15T04:16:32;13.27;;;6.10;;
15526;SDS011;7865;50.918;4.510;2022-11-15T04:21:53;11.97;;;5.90;;
15526;SDS011;7865;50.918;4.510;2022-11-15T04:27:32;10.67;;;6.80;;
15526;SDS011;7865;50.918;4.510;2022-11-15T04:32:52;9.60;;;6.13;;
15526;SDS011;7865;50.918;4.510;2022-11-15T04:38:13;14.53;;;6.43;;
15526;SDS011;7865;50.918;4.510;2022-11-15T04:43:33;10.93;;;5.13;;
15526;SDS011;7865;50.918;4.510;2022-11-15T04:48:54;9.33;;;5.57;;
15526;SDS011;7865;50.918;4.510;2022-11-15T04:54:18;9.33;;;5.57;;
15526;SDS011;7865;50.918;4.510;2022-11-15T04:59:39;9.23;;;5.80;;
15526;SDS011;7865;50.918;4.510;2022-11-15T05:04:59;8.03;;;5.83;;
15526;SDS011;7865;50.918;4.510;2022-11-15T05:10:19;11.27;;;6.20;;
15526;SDS011;7865;50.918;4.510;2022-11-15T05:15:40;12.60;;;6.27;;
15526;SDS011;7865;50.918;4.510;2022-11-15T05:21:04;11.60;;;5.37;;
15526;SDS011;7865;50.918;4.510;2022-11-15T05:26:26;12.10;;;6.50;;
15526;SDS011;7865;50.918;4.510;2022-11-15T05:31:47;8.23;;;5.40;;
15526;SDS011;7865;50.918;4.510;2022-11-15T05:37:08;13.10;;;5.00;;
15526;SDS011;7865;50.918;4.510;2022-11-15T05:42:28;9.00;;;4.87;;
15526;SDS011;7865;50.918;4.510;2022-11-15T05:47:50;7.03;;;4.10;;
15526;SDS011;7865;50.918;4.510;2022-11-15T05:53:14;9.97;;;3.97;;
15526;SDS011;7865;50.918;4.510;2022-11-15T05:58:39;4.87;;;3.70;;
15526;SDS011;7865;50.918;4.510;2022-11-15T06:03:59;7.67;;;4.83;;
15526;SDS011;7865;50.918;4.510;2022-11-15T06:09:20;7.67;;;3.90;;
15526;SDS011;7865;50.918;4.510;2022-11-15T06:14:40;8.23;;;4.17;;
15526;SDS011;7865;50.918;4.510;2022-11-15T06:20:01;7.23;;;4.43;;
15526;SDS011;7865;50.918;4.510;2022-11-15T06:25:22;5.93;;;4.57;;
15526;SDS011;7865;50.918;4.510;2022-11-15T06:30:42;8.13;;;3.83;;
15526;SDS011;7865;50.918;4.510;2022-11-15T06:36:07;6.67;;;3.77;;
15526;SDS011;7865;50.918;4.510;2022-11-15T06:41:36;8.17;;;4.30;;
15526;SDS011;7865;50.918;4.510;2022-11-15T06:46:57;9.63;;;4.27;;
15526;SDS011;7865;50.918;4.510;2022-11-15T06:52:17;12.43;;;5.50;;
15526;SDS011;7865;50.918;4.510;2022-11-15T06:57:46;7.63;;;4.80;;
15526;SDS011;7865;50.918;4.510;2022-11-15T07:03:08;8.13;;;4.53;;
15526;SDS011;7865;50.918;4.510;2022-11-15T07:08:29;5.90;;;4.73;;
15526;SDS011;7865;50.918;4.510;2022-11-15T07:13:49;9.03;;;4.67;;
15526;SDS011;7865;50.918;4.510;2022-11-15T07:19:10;11.90;;;5.30;;
15526;SDS011;7865;50.918;4.510;2022-11-15T07:24:31;5.43;;;4.10;;
15526;SDS011;7865;50.918;4.510;2022-11-15T07:29:52;7.23;;;4.90;;
15526;SDS011;7865;50.918;4.510;2022-11-15T07:35:12;9.83;;;5.13;;
15526;SDS011;7865;50.918;4.510;2022-11-15T07:40:33;14.57;;;5.20;;
15526;SDS011;7865;50.918;4.510;2022-11-15T07:45:53;8.20;;;4.63;;
15526;SDS011;7865;50.918;4.510;2022-11-15T07:51:18;9.50;;;5.20;;
15526;SDS011;7865;50.918;4.510;2022-11-15T07:56:39;7.70;;;4.60;;
15526;SDS011;7865;50.918;4.510;2022-11-15T08:02:00;7.37;;;4.47;;
15526;SDS011;7865;50.918;4.510;2022-11-15T08:07:21;8.03;;;3.70;;
15526;SDS011;7865;50.918;4.510;2022-11-15T08:12:42;4.83;;;3.77;;
15526;SDS011;7865;50.918;4.510;2022-11-15T08:18:08;5.23;;;3.50;;
15526;SDS011;7865;50.918;4.510;2022-11-15T08:23:32;6.93;;;3.40;;
15526;SDS011;7865;50.918;4.510;2022-11-15T08:28:53;5.70;;;3.07;;
15526;SDS011;7865;50.918;4.510;2022-11-15T08:34:14;7.03;;;3.40;;
15526;SDS011;7865;50.918;4.510;2022-11-15T08:39:35;8.63;;;2.57;;
15526;SDS011;7865;50.918;4.510;2022-11-15T08:44:55;4.83;;;1.93;;
15526;SDS011;7865;50.918;4.510;2022-11-15T08:50:16;4.77;;;2.33;;
15526;SDS011;7865;50.918;4.510;2022-11-15T08:55:37;5.67;;;1.80;;
15526;SDS011;7865;50.918;4.510;2022-11-15T09:00:58;5.90;;;1.90;;
15526;SDS011;7865;50.918;4.510;2022-11-15T09:06:19;1.97;;;1.23;;
15526;SDS011;7865;50.918;4.510;2022-11-15T09:11:39;4.33;;;1.70;;
15526;SDS011;7865;50.918;4.510;2022-11-15T09:17:00;3.37;;;1.30;;
15526;SDS011;7865;50.918;4.510;2022-11-15T09:22:20;3.13;;;1.23;;
15526;SDS011;7865;50.918;4.510;2022-11-15T09:27:41;6.77;;;1.60;;
15526;SDS011;7865;50.918;4.510;2022-11-15T09:33:08;2.03;;;1.20;;
15526;SDS011;7865;50.918;4.510;2022-11-15T09:38:32;5.03;;;1.57;;
15526;SDS011;7865;50.918;4.510;2022-11-15T09:44:05;4.40;;;1.70;;
15526;SDS011;7865;50.918;4.510;2022-11-15T09:49:33;3.53;;;1.30;;
15526;SDS011;7865;50.918;4.510;2022-11-15T09:54:52;3.37;;;1.23;;
15526;SDS011;7865;50.918;4.510;2022-11-15T10:00:03;4.93;;;1.70;;
15526;SDS011;7865;50.918;4.510;2022-11-15T10:05:31;7.83;;;1.37;;
15526;SDS011;7865;50.918;4.510;2022-11-15T10:11:19;11.60;;;1.10;;
15526;SDS011;7865;50.918;4.510;2022-11-15T10:21:40;5.63;;;1.40;;
15526;SDS011;7865;50.918;4.510;2022-11-15T10:26:55;4.07;;;1.10;;
15526;SDS011;7865;50.918;4.510;2022-11-15T10:31:57;3.43;;;0.90;;
15526;SDS011;7865;50.918;4.510;2022-11-15T10:37:00;4.65;;;1.08;;
15526;SDS011;7865;50.918;4.510;2022-11-15T10:47:22;3.42;;;1.05;;
15526;SDS011;7865;50.918;4.510;2022-11-15T10:52:26;6.03;;;1.38;;
15526;SDS011;7865;50.918;4.510;2022-11-15T10:57:31;3.93;;;1.20;;
15526;SDS011;7865;50.918;4.510;2022-11-15T11:02:38;2.93;;;1.13;;
15526;SDS011;7865;50.918;4.510;2022-11-15T11:07:46;4.67;;;1.10;;
15526;SDS011;7865;50.918;4.510;2022-11-15T11:24:21;5.03;;;0.77;;
15526;SDS011;7865;50.918;4.510;2022-11-15T11:41:13;3.65;;;1.10;;
15526;SDS011;7865;50.918;4.510;2022-11-15T11:57:16;4.03;;;1.23;;
15526;SDS011;7865;50.918;4.510;2022-11-15T12:02:44;5.03;;;1.08;;
15526;SDS011;7865;50.918;4.510;2022-11-15T12:13:37;4.53;;;1.08;;
15526;SDS011;7865;50.918;4.510;2022-11-15T12:18:41;22.60;;;2.80;;
15526;SDS011;7865;50.918;4.510;2022-11-15T12:23:48;4.40;;;1.30;;
15526;SDS011;7865;50.918;4.510;2022-11-15T12:28:55;8.63;;;1.40;;
15526;SDS011;7865;50.918;4.510;2022-11-15T12:45:33;5.60;;;1.30;;
15526;SDS011;7865;50.918;4.510;2022-11-15T13:01:06;5.17;;;1.13;;
15526;SDS011;7865;50.918;4.510;2022-11-15T13:06:09;1.63;;;1.00;;
15526;SDS011;7865;50.918;4.510;2022-11-15T13:11:43;3.85;;;1.33;;
15526;SDS011;7865;50.918;4.510;2022-11-15T13:16:55;3.72;;;1.20;;
15526;SDS011;7865;50.918;4.510;2022-11-15T13:21:59;2.90;;;1.00;;
15526;SDS011;7865;50.918;4.510;2022-11-15T13:27:28;2.30;;;1.20;;
15526;SDS011;7865;50.918;4.510;2022-11-15T13:32:30;1.23;;;1.08;;
15526;SDS011;7865;50.918;4.510;2022-11-15T13:37:32;2.58;;;1.20;;
15526;SDS011;7865;50.918;4.510;2022-11-15T13:42:35;0.98;;;0.63;;
15526;SDS011;7865;50.918;4.510;2022-11-15T13:47:50;3.30;;;1.17;;
15526;SDS011;7865;50.918;4.510;2022-11-15T13:52:53;4.13;;;1.50;;
15526;SDS011;7865;50.918;4.510;2022-11-15T13:57:58;2.63;;;1.07;;
15526;SDS011;7865;50.918;4.510;2022-11-15T14:03:21;3.67;;;1.40;;
15526;SDS011;7865;50.918;4.510;2022-11-15T14:08:26;2.03;;;1.13;;
15526;SDS011;7865;50.918;4.510;2022-11-15T14:13:29;2.93;;;0.97;;
15526;SDS011;7865;50.918;4.510;2022-11-15T14:18:47;1.53;;;1.10;;
15526;SDS011;7865;50.918;4.510;2022-11-15T14:23:50;3.23;;;1.37;;
15526;SDS011;7865;50.918;4.510;2022-11-15T14:28:53;4.13;;;1.40;;
15526;SDS011;7865;50.918;4.510;2022-11-15T14:33:54;2.57;;;1.13;;
15526;SDS011;7865;50.918;4.510;2022-11-15T14:38:56;3.80;;;1.37;;
15526;SDS011;7865;50.918;4.510;2022-11-15T14:43:59;4.03;;;1.87;;
15526;SDS011;7865;50.918;4.510;2022-11-15T14:49:01;6.00;;;1.50;;
15526;SDS011;7865;50.918;4.510;2022-11-15T14:54:03;3.07;;;1.20;;
15526;SDS011;7865;50.918;4.510;2022-11-15T14:59:05;3.37;;;2.00;;
15526;SDS011;7865;50.918;4.510;2022-11-15T15:04:08;2.37;;;1.83;;
15526;SDS011;7865;50.918;4.510;2022-11-15T15:09:11;2.43;;;2.00;;
15526;SDS011;7865;50.918;4.510;2022-11-15T15:14:13;2.70;;;1.57;;
15526;SDS011;7865;50.918;4.510;2022-11-15T15:19:15;3.43;;;2.20;;
15526;SDS011;7865;50.918;4.510;2022-11-15T15:24:17;3.83;;;2.00;;
15526;SDS011;7865;50.918;4.510;2022-11-15T15:29:19;1.90;;;1.70;;
15526;SDS011;7865;50.918;4.510;2022-11-15T15:34:21;4.67;;;2.63;;
15526;SDS011;7865;50.918;4.510;2022-11-15T15:39:23;2.50;;;1.90;;
15526;SDS011;7865;50.918;4.510;2022-11-15T15:44:25;1.57;;;1.47;;
15526;SDS011;7865;50.918;4.510;2022-11-15T15:49:27;5.77;;;2.63;;
15526;SDS011;7865;50.918;4.510;2022-11-15T15:54:29;5.13;;;2.03;;
15526;SDS011;7865;50.918;4.510;2022-11-15T15:59:31;2.70;;;2.30;;
15526;SDS011;7865;50.918;4.510;2022-11-15T16:04:33;5.17;;;1.87;;
15526;SDS011;7865;50.918;4.510;2022-11-15T16:09:35;3.67;;;2.40;;
15526;SDS011;7865;50.918;4.510;2022-11-15T16:14:56;4.33;;;2.30;;
15526;SDS011;7865;50.918;4.510;2022-11-15T16:19:58;3.70;;;2.87;;
15526;SDS011;7865;50.918;4.510;2022-11-15T16:25:01;2.67;;;2.20;;
15526;SDS011;7865;50.918;4.510;2022-11-15T16:30:03;3.50;;;2.60;;
15526;SDS011;7865;50.918;4.510;2022-11-15T16:35:05;5.67;;;3.33;;
15526;SDS011;7865;50.918;4.510;2022-11-15T16:45:33;4.80;;;3.40;;
15526;SDS011;7865;50.918;4.510;2022-11-15T16:50:35;6.40;;;3.73;;
15526;SDS011;7865;50.918;4.510;2022-11-15T16:55:40;8.10;;;3.63;;
15526;SDS011;7865;50.918;4.510;2022-11-15T17:00:42;4.37;;;3.67;;
15526;SDS011;7865;50.918;4.510;2022-11-15T17:05:44;4.30;;;3.37;;
15526;SDS011;7865;50.918;4.510;2022-11-15T17:10:46;5.37;;;3.50;;
15526;SDS011;7865;50.918;4.510;2022-11-15T17:15:48;5.60;;;3.40;;
15526;SDS011;7865;50.918;4.510;2022-11-15T17:20:49;4.13;;;3.00;;
15526;SDS011;7865;50.918;4.510;2022-11-15T17:25:58;5.13;;;2.93;;
15526;SDS011;7865;50.918;4.510;2022-11-15T17:31:22;7.87;;;3.43;;
15526;SDS011;7865;50.918;4.510;2022-11-15T17:36:25;9.97;;;4.90;;
15526;SDS011;7865;50.918;4.510;2022-11-15T17:41:27;6.47;;;4.20;;
15526;SDS011;7865;50.918;4.510;2022-11-15T17:46:30;7.33;;;4.67;;
15526;SDS011;7865;50.918;4.510;2022-11-15T17:51:33;8.70;;;5.50;;
15526;SDS011;7865;50.918;4.510;2022-11-15T17:56:37;6.73;;;4.03;;
15526;SDS011;7865;50.918;4.510;2022-11-15T18:01:40;7.97;;;4.60;;
15526;SDS011;7865;50.918;4.510;2022-11-15T18:06:41;6.80;;;4.40;;
15526;SDS011;7865;50.918;4.510;2022-11-15T18:11:43;7.37;;;4.77;;
15526;SDS011;7865;50.918;4.510;2022-11-15T18:16:50;7.43;;;5.30;;
15526;SDS011;7865;50.918;4.510;2022-11-15T18:21:54;14.10;;;7.87;;
15526;SDS011;7865;50.918;4.510;2022-11-15T18:27:00;7.27;;;5.47;;
15526;SDS011;7865;50.918;4.510;2022-11-15T18:32:04;4.70;;;4.03;;
15526;SDS011;7865;50.918;4.510;2022-11-15T18:37:12;4.67;;;4.07;;
15526;SDS011;7865;50.918;4.510;2022-11-15T18:42:13;3.90;;;3.03;;
15526;SDS011;7865;50.918;4.510;2022-11-15T18:47:15;4.53;;;3.97;;
15526;SDS011;7865;50.918;4.510;2022-11-15T18:52:17;4.33;;;3.93;;
15526;SDS011;7865;50.918;4.510;2022-11-15T18:57:19;5.93;;;4.17;;
15526;SDS011;7865;50.918;4.510;2022-11-15T19:02:21;4.87;;;3.53;;
15526;SDS011;7865;50.918;4.510;2022-11-15T19:07:23;3.50;;;3.20;;
15526;SDS011;7865;50.918;4.510;2022-11-15T19:12:24;3.73;;;3.07;;
15526;SDS011;7865;50.918;4.510;2022-11-15T19:17:26;5.20;;;3.60;;
15526;SDS011;7865;50.918;4.510;2022-11-15T19:22:28;4.40;;;3.40;;
15526;SDS011;7865;50.918;4.510;2022-11-15T19:27:30;4.80;;;3.70;;
15526;SDS011;7865;50.918;4.510;2022-11-15T19:32:38;4.20;;;3.30;;
15526;SDS011;7865;50.918;4.510;2022-11-15T19:37:40;4.17;;;3.47;;
15526;SDS011;7865;50.918;4.510;2022-11-15T19:42:42;4.20;;;3.37;;
15526;SDS011;7865;50.918;4.510;2022-11-15T19:47:43;4.37;;;3.00;;
15526;SDS011;7865;50.918;4.510;2022-11-15T19:52:45;5.23;;;3.57;;
15526;SDS011;7865;50.918;4.510;2022-11-15T19:57:47;6.37;;;4.90;;
15526;SDS011;7865;50.918;4.510;2022-11-15T20:02:49;6.00;;;4.70;;
15526;SDS011;7865;50.918;4.510;2022-11-15T20:07:51;6.63;;;4.00;;
15526;SDS011;7865;50.918;4.510;2022-11-15T20:12:53;6.73;;;4.97;;
15526;SDS011;7865;50.918;4.510;2022-11-15T20:17:55;6.13;;;3.90;;
15526;SDS011;7865;50.918;4.510;2022-11-15T20:22:57;5.63;;;3.50;;
15526;SDS011;7865;50.918;4.510;2022-11-15T20:28:04;4.63;;;3.40;;
15526;SDS011;7865;50.918;4.510;2022-11-15T20:33:06;4.03;;;3.43;;
15526;SDS011;7865;50.918;4.510;2022-11-15T20:38:10;5.00;;;3.50;;
15526;SDS011;7865;50.918;4.510;2022-11-15T20:43:13;5.40;;;3.80;;
15526;SDS011;7865;50.918;4.510;2022-11-15T20:48:16;5.90;;;3.47;;
15526;SDS011;7865;50.918;4.510;2022-11-15T20:53:18;6.47;;;3.60;;
15526;SDS011;7865;50.918;4.510;2022-11-15T20:58:21;7.07;;;3.73;;
15526;SDS011;7865;50.918;4.510;2022-11-15T21:03:22;6.40;;;3.30;;
15526;SDS011;7865;50.918;4.510;2022-11-15T21:08:24;5.13;;;4.10;;
15526;SDS011;7865;50.918;4.510;2022-11-15T21:13:26;6.60;;;4.27;;
15526;SDS011;7865;50.918;4.510;2022-11-15T21:18:28;5.37;;;3.60;;
15526;SDS011;7865;50.918;4.510;2022-11-15T21:23:32;5.80;;;3.57;;
15526;SDS011;7865;50.918;4.510;2022-11-15T21:28:34;4.47;;;3.50;;
15526;SDS011;7865;50.918;4.510;2022-11-15T21:33:36;7.23;;;4.23;;
15526;SDS011;7865;50.918;4.510;2022-11-15T21:38:38;7.17;;;3.87;;
15526;SDS011;7865;50.918;4.510;2022-11-15T21:43:40;5.23;;;3.33;;
15526;SDS011;7865;50.918;4.510;2022-11-15T21:48:42;7.00;;;3.17;;
15526;SDS011;7865;50.918;4.510;2022-11-15T21:53:44;5.83;;;3.03;;
15526;SDS011;7865;50.918;4.510;2022-11-15T21:58:46;3.20;;;2.70;;
15526;SDS011;7865;50.918;4.510;2022-11-15T22:03:48;4.47;;;2.83;;
15526;SDS011;7865;50.918;4.510;2022-11-15T22:08:50;5.90;;;3.33;;
15526;SDS011;7865;50.918;4.510;2022-11-15T22:13:51;4.73;;;3.20;;
15526;SDS011;7865;50.918;4.510;2022-11-15T22:18:53;3.00;;;2.37;;
15526;SDS011;7865;50.918;4.510;2022-11-15T22:23:55;3.30;;;2.10;;
15526;SDS011;7865;50.918;4.510;2022-11-15T22:28:57;3.63;;;2.40;;
15526;SDS011;7865;50.918;4.510;2022-11-15T22:33:59;4.73;;;2.50;;
15526;SDS011;7865;50.918;4.510;2022-11-15T22:39:01;2.47;;;2.27;;
15526;SDS011;7865;50.918;4.510;2022-11-15T22:44:03;2.63;;;1.83;;
15526;SDS011;7865;50.918;4.510;2022-11-15T22:49:05;1.60;;;1.50;;
15526;SDS011;7865;50.918;4.510;2022-11-15T22:54:09;2.40;;;1.97;;
15526;SDS011;7865;50.918;4.510;2022-11-15T22:59:11;2.47;;;1.87;;
15526;SDS011;7865;50.918;4.510;2022-11-15T23:04:12;2.77;;;1.87;;
15526;SDS011;7865;50.918;4.510;2022-11-15T23:09:14;3.87;;;1.70;;
15526;SDS011;7865;50.918;4.510;2022-11-15T23:14:16;2.30;;;2.10;;
15526;SDS011;7865;50.918;4.510;2022-11-15T23:19:18;2.53;;;1.77;;
15526;SDS011;7865;50.918;4.510;2022-11-15T23:24:20;3.30;;;2.00;;
15526;SDS011;7865;50.918;4.510;2022-11-15T23:29:24;3.07;;;2.17;;
15526;SDS011;7865;50.918;4.510;2022-11-15T23:34:27;3.47;;;2.63;;
15526;SDS011;7865;50.918;4.510;2022-11-15T23:39:30;3.77;;;2.17;;
15526;SDS011;7865;50.918;4.510;2022-11-15T23:44:32;5.13;;;2.57;;
15526;SDS011;7865;50.918;4.510;2022-11-15T23:49:34;5.40;;;2.47;;
15526;SDS011;7865;50.918;4.510;2022-11-15T23:54:36;3.50;;;2.20;;
15526;SDS011;7865;50.918;4.510;2022-11-15T23:59:38;3.00;;;2.43;;
